createdAt,value
2023-01-15T00:02:24.096Z,-3.34
2023-01-15T00:04:51.897Z,-3.34
2023-01-15T00:07:19.423Z,-3.35
2023-01-15T00:09:46.774Z,-3.35
2023-01-15T00:12:14.108Z,-3.34
2023-01-15T00:14:41.514Z,-3.35
2023-01-15T00:17:08.897Z,-3.37
2023-01-15T00:19:36.444Z,-3.39
2023-01-15T00:22:03.943Z,-3.40
2023-01-15T00:24:50.272Z,-3.38
2023-01-15T00:27:36.503Z,-3.37
2023-01-15T00:30:04.287Z,-3.37
2023-01-15T00:32:31.679Z,-3.37
2023-01-15T00:34:59.284Z,-3.39
2023-01-15T00:37:27.159Z,-3.41
2023-01-15T00:39:54.595Z,-3.42
2023-01-15T00:42:22.004Z,-3.43
2023-01-15T00:44:49.370Z,-3.42
2023-01-15T00:47:16.774Z,-3.43
2023-01-15T00:49:44.331Z,-3.45
2023-01-15T00:52:12.195Z,-3.46
2023-01-15T00:54:39.708Z,-3.48
2023-01-15T00:57:07.211Z,-3.47
2023-01-15T00:59:34.727Z,-3.46
2023-01-15T01:02:02.297Z,-3.45
2023-01-15T01:04:29.786Z,-3.46
2023-01-15T01:06:57.145Z,-3.47
2023-01-15T01:09:24.678Z,-3.47
2023-01-15T01:11:52.196Z,-3.45
2023-01-15T01:14:19.761Z,-3.43
2023-01-15T01:16:47.194Z,-3.43
2023-01-15T01:19:20.759Z,-3.45
2023-01-15T01:21:47.940Z,-3.47
2023-01-15T01:24:18.085Z,-3.47
2023-01-15T01:26:46.078Z,-3.48
2023-01-15T01:29:14.390Z,-3.50
2023-01-15T01:31:41.908Z,-3.51
2023-01-15T01:34:09.646Z,-3.51
2023-01-15T01:36:38.387Z,-3.52
2023-01-15T01:39:06.781Z,-3.53
2023-01-15T01:41:34.384Z,-3.55
2023-01-15T01:44:02.953Z,-3.56
2023-01-15T01:46:32.244Z,-3.57
2023-01-15T01:49:02.770Z,-3.58
2023-01-15T01:51:32.644Z,-3.57
2023-01-15T01:54:00.140Z,-3.57
2023-01-15T01:56:28.082Z,-3.56
2023-01-15T01:58:55.623Z,-3.55
2023-01-15T02:01:23.633Z,-3.55
2023-01-15T02:03:52.856Z,-3.53
2023-01-15T02:06:20.203Z,-3.51
2023-01-15T02:08:47.623Z,-3.51
2023-01-15T02:11:17.415Z,-3.51
2023-01-15T02:13:50.534Z,-3.52
2023-01-15T02:16:24.711Z,-3.53
2023-01-15T02:19:18.337Z,-3.54
2023-01-15T02:22:05.004Z,-3.57
2023-01-15T02:25:05.367Z,-3.58
2023-01-15T02:27:33.528Z,-3.59
2023-01-15T02:30:08.590Z,-3.60
2023-01-15T02:33:07.116Z,-3.60
2023-01-15T02:35:43.535Z,-3.63
2023-01-15T02:38:13.689Z,-3.64
2023-01-15T02:40:41.427Z,-3.64
2023-01-15T02:43:08.347Z,-3.65
2023-01-15T02:45:37.512Z,-3.65
2023-01-15T02:48:11.303Z,-3.64
2023-01-15T02:50:40.977Z,-3.64
2023-01-15T02:53:09.905Z,-3.65
2023-01-15T02:55:48.229Z,-3.66
2023-01-15T02:58:17.937Z,-3.66
2023-01-15T03:00:47.667Z,-3.67
2023-01-15T03:03:19.366Z,-3.67
2023-01-15T03:05:52.333Z,-3.67
2023-01-15T03:08:19.768Z,-3.67
2023-01-15T03:10:49.521Z,-3.67
2023-01-15T03:13:21.404Z,-3.68
2023-01-15T03:16:20.992Z,-3.69
2023-01-15T03:19:23.299Z,-3.68
2023-01-15T03:21:53.680Z,-3.71
2023-01-15T03:24:49.359Z,-3.72
2023-01-15T03:27:17.274Z,-3.74
2023-01-15T03:30:01.317Z,-3.76
2023-01-15T03:32:31.688Z,-3.76
2023-01-15T03:35:00.493Z,-3.77
2023-01-15T03:37:28.507Z,-3.77
2023-01-15T03:39:56.706Z,-3.77
2023-01-15T03:42:45.506Z,-3.74
2023-01-15T03:45:23.401Z,-3.74
2023-01-15T03:47:56.675Z,-3.75
2023-01-15T03:50:25.145Z,-3.76
2023-01-15T03:53:13.093Z,-3.78
2023-01-15T03:55:54.175Z,-3.79
2023-01-15T03:58:29.272Z,-3.80
2023-01-15T04:01:00.090Z,-3.80
2023-01-15T04:03:29.208Z,-3.80
2023-01-15T04:05:58.170Z,-3.78
2023-01-15T04:08:28.425Z,-3.76
2023-01-15T04:10:57.189Z,-3.74
2023-01-15T04:13:30.095Z,-3.72
2023-01-15T04:15:58.922Z,-3.71
2023-01-15T04:18:26.549Z,-3.70
2023-01-15T04:20:56.869Z,-3.72
2023-01-15T04:23:24.292Z,-3.73
2023-01-15T04:25:51.713Z,-3.73
2023-01-15T04:28:19.345Z,-3.73
2023-01-15T04:30:47.707Z,-3.75
2023-01-15T04:33:15.364Z,-3.75
2023-01-15T04:35:43.102Z,-3.75
2023-01-15T04:38:10.482Z,-3.76
2023-01-15T04:40:56.370Z,-3.78
2023-01-15T04:43:42.580Z,-3.80
2023-01-15T04:46:10.144Z,-3.83
2023-01-15T04:48:39.584Z,-3.83
2023-01-15T04:51:07.843Z,-3.82
2023-01-15T04:53:35.364Z,-3.82
2023-01-15T04:56:06.266Z,-3.81
2023-01-15T04:58:34.067Z,-3.79
2023-01-15T05:01:01.719Z,-3.76
2023-01-15T05:03:30.045Z,-3.75
2023-01-15T05:06:02.448Z,-3.76
2023-01-15T05:08:29.961Z,-3.77
2023-01-15T05:11:01.039Z,-3.77
2023-01-15T05:13:28.697Z,-3.78
2023-01-15T05:15:56.324Z,-3.77
2023-01-15T05:18:23.878Z,-3.76
2023-01-15T05:20:51.624Z,-3.76
2023-01-15T05:23:19.208Z,-3.76
2023-01-15T05:25:46.637Z,-3.78
2023-01-15T05:28:13.941Z,-3.78
2023-01-15T05:30:41.484Z,-3.78
2023-01-15T05:33:08.960Z,-3.78
2023-01-15T05:35:36.434Z,-3.78
2023-01-15T05:38:06.632Z,-3.77
2023-01-15T05:40:34.358Z,-3.77
2023-01-15T05:43:01.813Z,-3.76
2023-01-15T05:45:29.306Z,-3.74
2023-01-15T05:47:56.747Z,-3.72
2023-01-15T05:50:24.183Z,-3.72
2023-01-15T05:52:51.560Z,-3.72
2023-01-15T05:55:19.216Z,-3.71
2023-01-15T05:57:46.747Z,-3.70
2023-01-15T06:00:14.938Z,-3.69
2023-01-15T06:02:42.460Z,-3.68
2023-01-15T06:05:10.310Z,-3.69
2023-01-15T06:07:38.413Z,-3.69
2023-01-15T06:10:06.818Z,-3.69
2023-01-15T06:12:34.438Z,-3.70
2023-01-15T06:15:01.862Z,-3.69
2023-01-15T06:17:29.315Z,-3.67
2023-01-15T06:19:56.705Z,-3.65
2023-01-15T06:22:24.368Z,-3.62
2023-01-15T06:24:51.753Z,-3.61
2023-01-15T06:27:20.575Z,-3.60
2023-01-15T06:29:48.236Z,-3.58
2023-01-15T06:32:15.657Z,-3.55
2023-01-15T06:34:44.808Z,-3.50
2023-01-15T06:37:12.200Z,-3.47
2023-01-15T06:39:39.623Z,-3.44
2023-01-15T06:42:25.936Z,-3.39
2023-01-15T06:45:11.989Z,-3.41
2023-01-15T06:47:39.459Z,-3.42
2023-01-15T06:50:07.325Z,-3.42
2023-01-15T06:52:35.049Z,-3.40
2023-01-15T06:55:02.552Z,-3.38
2023-01-15T06:57:30.015Z,-3.35
2023-01-15T06:59:57.499Z,-3.30
2023-01-15T07:02:25.139Z,-3.27
2023-01-15T07:04:52.606Z,-3.25
2023-01-15T07:07:20.580Z,-3.26
2023-01-15T07:09:48.045Z,-3.26
2023-01-15T07:12:15.437Z,-3.21
2023-01-15T07:14:43.023Z,-3.19
2023-01-15T07:17:10.415Z,-3.18
2023-01-15T07:19:38.115Z,-3.15
2023-01-15T07:22:06.334Z,-3.11
2023-01-15T07:24:34.116Z,-3.07
2023-01-15T07:27:01.598Z,-3.06
2023-01-15T07:29:30.784Z,-3.06
2023-01-15T07:31:58.984Z,-3.03
2023-01-15T07:34:26.612Z,-3.00
2023-01-15T07:36:54.057Z,-2.94
2023-01-15T07:39:21.625Z,-2.91
2023-01-15T07:42:08.012Z,-2.95
2023-01-15T07:44:54.767Z,-2.97
2023-01-15T07:47:43.091Z,-2.97
2023-01-15T07:50:15.506Z,-2.97
2023-01-15T07:52:43.131Z,-2.95
2023-01-15T07:55:12.929Z,-2.93
2023-01-15T07:57:41.448Z,-2.91
2023-01-15T08:00:15.055Z,-2.87
2023-01-15T08:02:42.925Z,-2.82
2023-01-15T08:05:11.763Z,-2.77
2023-01-15T08:07:40.539Z,-2.70
2023-01-15T08:10:10.243Z,-2.62
2023-01-15T08:12:57.499Z,-2.53
2023-01-15T08:15:26.047Z,-2.44
2023-01-15T08:17:53.406Z,-2.40
2023-01-15T08:20:25.754Z,-2.43
2023-01-15T08:22:53.144Z,-2.41
2023-01-15T08:25:23.045Z,-2.38
2023-01-15T08:27:50.511Z,-2.37
2023-01-15T08:30:19.858Z,-2.38
2023-01-15T08:32:47.401Z,-2.33
2023-01-15T08:35:14.955Z,-2.27
2023-01-15T08:37:42.940Z,-2.25
2023-01-15T08:40:11.680Z,-2.22
2023-01-15T08:42:39.402Z,-2.12
2023-01-15T08:45:07.776Z,-2.10
2023-01-15T08:47:35.250Z,-2.09
2023-01-15T08:50:02.729Z,-2.07
2023-01-15T08:52:30.297Z,-2.09
2023-01-15T08:54:57.694Z,-2.09
2023-01-15T08:57:25.165Z,-2.08
2023-01-15T08:59:52.547Z,-2.11
2023-01-15T09:02:20.045Z,-2.14
2023-01-15T09:04:47.697Z,-2.18
2023-01-15T09:07:15.284Z,-2.17
2023-01-15T09:09:42.873Z,-2.10
2023-01-15T09:12:10.533Z,-2.04
2023-01-15T09:14:58.504Z,-2.05
2023-01-15T09:17:25.387Z,-2.05
2023-01-15T09:19:52.926Z,-2.06
2023-01-15T09:22:20.318Z,-2.06
2023-01-15T09:24:47.746Z,-2.06
2023-01-15T09:27:15.140Z,-2.05
2023-01-15T09:29:42.644Z,-2.04
2023-01-15T09:32:10.832Z,-2.03
2023-01-15T09:34:38.407Z,-2.00
2023-01-15T09:37:05.832Z,-1.93
2023-01-15T09:39:33.394Z,-1.83
2023-01-15T09:42:18.795Z,-1.71
2023-01-15T09:44:49.157Z,-1.65
2023-01-15T09:47:32.175Z,-1.63
2023-01-15T09:50:54.327Z,-1.64
2023-01-15T09:53:24.573Z,-1.62
2023-01-15T09:55:51.685Z,-1.62
2023-01-15T09:58:21.355Z,-1.66
2023-01-15T10:00:49.967Z,-1.72
2023-01-15T10:03:29.842Z,-1.80
2023-01-15T10:06:14.432Z,-1.86
2023-01-15T10:08:46.685Z,-1.90
2023-01-15T10:11:22.430Z,-1.87
2023-01-15T10:13:56.504Z,-1.83
2023-01-15T10:16:25.956Z,-1.77
2023-01-15T10:18:53.733Z,-1.74
2023-01-15T10:22:00.125Z,-1.76
2023-01-15T10:24:33.311Z,-1.73
2023-01-15T10:27:00.884Z,-1.72
2023-01-15T10:29:40.849Z,-1.71
2023-01-15T10:32:14.516Z,-1.70
2023-01-15T10:35:08.150Z,-1.64
2023-01-15T10:37:45.006Z,-1.61
2023-01-15T10:40:51.624Z,-1.64
2023-01-15T10:43:38.232Z,-1.72
2023-01-15T10:46:13.110Z,-1.79
2023-01-15T10:48:41.131Z,-1.81
2023-01-15T10:51:20.461Z,-1.82
2023-01-15T10:53:50.361Z,-1.84
2023-01-15T10:56:32.028Z,-1.86
2023-01-15T10:59:08.976Z,-1.92
2023-01-15T11:01:36.968Z,-1.96
2023-01-15T11:04:04.646Z,-1.94
2023-01-15T11:06:33.028Z,-1.94
2023-01-15T11:09:10.951Z,-1.95
2023-01-15T11:11:59.367Z,-1.99
2023-01-15T11:14:52.090Z,-2.00
2023-01-15T11:17:38.863Z,-2.02
2023-01-15T11:20:19.299Z,-2.01
2023-01-15T11:22:46.825Z,-2.03
2023-01-15T11:25:14.381Z,-2.04
2023-01-15T11:27:41.929Z,-2.01
2023-01-15T11:30:26.593Z,-2.02
2023-01-15T11:32:58.352Z,-2.03
2023-01-15T11:35:26.765Z,-2.01
2023-01-15T11:38:05.584Z,-1.98
2023-01-15T11:40:33.150Z,-1.96
2023-01-15T11:43:19.416Z,-1.95
2023-01-15T11:46:09.784Z,-1.95
2023-01-15T11:49:06.997Z,-1.98
2023-01-15T11:51:46.659Z,-2.02
2023-01-15T11:54:14.167Z,-2.10
2023-01-15T11:56:45.229Z,-2.14
2023-01-15T11:59:14.058Z,-2.15
2023-01-15T12:01:58.583Z,-2.12
2023-01-15T12:04:45.382Z,-2.10
2023-01-15T12:07:14.201Z,-2.13
2023-01-15T12:09:52.450Z,-2.14
2023-01-15T12:12:44.324Z,-2.17
2023-01-15T12:15:11.818Z,-2.20
2023-01-15T12:18:06.316Z,-2.21
2023-01-15T12:20:36.641Z,-2.22
2023-01-15T12:23:20.853Z,-2.24
2023-01-15T12:25:56.775Z,-2.25
2023-01-15T12:28:35.792Z,-2.26
2023-01-15T12:31:08.914Z,-2.26
2023-01-15T12:33:36.451Z,-2.26
2023-01-15T12:36:10.538Z,-2.32
2023-01-15T12:38:41.070Z,-2.34
2023-01-15T12:41:12.499Z,-2.33
2023-01-15T12:43:58.559Z,-2.27
2023-01-15T12:46:29.421Z,-2.23
2023-01-15T12:49:12.200Z,-2.22
2023-01-15T12:52:05.638Z,-2.20
2023-01-15T12:54:39.834Z,-2.18
2023-01-15T12:57:17.230Z,-2.20
2023-01-15T12:59:50.760Z,-2.23
2023-01-15T13:02:30.456Z,-2.22
2023-01-15T13:05:04.923Z,-2.22
2023-01-15T13:07:43.462Z,-2.22
2023-01-15T16:49:21.388Z,-2.72
2023-01-15T16:51:59.440Z,-2.58
2023-01-15T16:54:29.893Z,-2.54
2023-01-15T16:57:01.822Z,-2.48
2023-01-15T16:59:30.643Z,-2.43
2023-01-15T17:02:05.921Z,-2.39
2023-01-15T17:04:38.153Z,-2.38
2023-01-15T17:07:39.504Z,-2.40
2023-01-15T17:10:19.717Z,-2.40
2023-01-15T17:12:47.779Z,-2.42
2023-01-15T17:15:20.067Z,-2.43
2023-01-15T17:17:48.101Z,-2.42
2023-01-15T17:20:16.291Z,-2.41
2023-01-15T17:22:45.291Z,-2.42
2023-01-15T17:25:31.419Z,-2.42
2023-01-15T17:27:59.780Z,-2.43
2023-01-15T17:30:34.930Z,-2.45
2023-01-15T17:33:06.639Z,-2.46
2023-01-15T17:35:38.653Z,-2.45
2023-01-15T17:38:07.800Z,-2.45
2023-01-15T17:40:35.620Z,-2.47
2023-01-15T17:43:04.350Z,-2.51
2023-01-15T17:45:33.222Z,-2.52
2023-01-15T17:48:02.888Z,-2.52
2023-01-15T17:50:30.703Z,-2.51
2023-01-15T17:53:01.065Z,-2.52
2023-01-15T17:55:47.577Z,-2.50
2023-01-15T17:58:33.948Z,-2.51
2023-01-15T18:01:21.332Z,-2.51
2023-01-15T18:04:09.832Z,-2.52
2023-01-15T18:06:37.876Z,-2.50
2023-01-15T18:09:06.071Z,-2.47
2023-01-15T18:11:33.549Z,-2.44
2023-01-15T18:14:01.221Z,-2.45
2023-01-15T18:16:29.225Z,-2.48
2023-01-15T18:18:56.997Z,-2.50
2023-01-15T18:21:24.834Z,-2.48
2023-01-15T18:23:52.510Z,-2.44
2023-01-15T18:26:20.267Z,-2.41
2023-01-15T18:28:48.763Z,-2.42
2023-01-15T18:31:17.482Z,-2.43
2023-01-15T18:33:46.082Z,-2.44
2023-01-15T18:36:14.339Z,-2.43
2023-01-15T18:38:47.242Z,-2.43
2023-01-15T18:41:35.308Z,-2.42
2023-01-15T18:44:31.394Z,-2.43
2023-01-15T18:47:01.272Z,-2.46
2023-01-15T18:49:29.770Z,-2.54
2023-01-15T18:52:17.047Z,-2.61
2023-01-15T18:54:44.866Z,-2.61
2023-01-15T18:57:12.473Z,-2.60
2023-01-15T18:59:39.905Z,-2.60
2023-01-15T19:02:07.511Z,-2.62
2023-01-15T19:04:35.208Z,-2.64
2023-01-15T19:07:04.376Z,-2.64
2023-01-15T19:09:32.316Z,-2.63
2023-01-15T19:12:00.039Z,-2.62
2023-01-15T19:14:46.364Z,-2.62
2023-01-15T19:17:34.155Z,-2.65
2023-01-15T19:20:02.177Z,-2.67
2023-01-15T19:22:48.975Z,-2.68
2023-01-15T19:25:17.016Z,-2.70
2023-01-15T19:27:44.709Z,-2.72
2023-01-15T19:30:12.829Z,-2.73
2023-01-15T19:32:40.563Z,-2.76
2023-01-15T19:35:08.812Z,-2.82
2023-01-15T19:37:39.734Z,-2.87
2023-01-15T19:40:14.147Z,-2.90
2023-01-15T19:43:00.824Z,-2.92
2023-01-15T19:45:47.255Z,-2.95
2023-01-15T19:48:34.738Z,-2.99
2023-01-15T19:51:02.849Z,-3.00
2023-01-15T19:53:30.492Z,-3.00
2023-01-15T19:55:57.981Z,-2.99
2023-01-15T19:58:25.652Z,-2.98
2023-01-15T20:00:53.362Z,-2.96
2023-01-15T20:03:20.949Z,-2.94
2023-01-15T20:05:48.685Z,-2.94
2023-01-15T20:08:18.017Z,-2.97
2023-01-15T20:10:46.712Z,-2.99
2023-01-15T20:13:38.352Z,-3.00
2023-01-15T20:16:11.086Z,-3.00
2023-01-15T20:18:39.446Z,-3.02
2023-01-15T20:21:08.316Z,-3.04
2023-01-15T20:23:36.938Z,-3.05
2023-01-15T20:26:05.917Z,-3.06
2023-01-15T20:28:36.054Z,-3.07
2023-01-15T20:31:04.287Z,-3.11
2023-01-15T20:33:31.933Z,-3.15
2023-01-15T20:36:04.133Z,-3.15
2023-01-15T20:38:32.028Z,-3.14
2023-01-15T20:41:19.449Z,-3.13
2023-01-15T20:44:05.906Z,-3.10
2023-01-15T20:46:33.417Z,-3.11
2023-01-15T20:49:20.614Z,-3.13
2023-01-15T20:51:48.129Z,-3.15
2023-01-15T20:54:15.753Z,-3.17
2023-01-15T20:56:43.123Z,-3.18
2023-01-15T20:59:10.646Z,-3.19
2023-01-15T21:01:40.687Z,-3.20
2023-01-15T21:04:10.127Z,-3.22
2023-01-15T21:06:37.651Z,-3.24
2023-01-15T21:09:06.332Z,-3.23
2023-01-15T21:11:33.930Z,-3.24
2023-01-15T21:14:01.425Z,-3.25
2023-01-15T21:16:29.155Z,-3.24
2023-01-15T21:18:56.788Z,-3.23
2023-01-15T21:21:24.439Z,-3.24
2023-01-15T21:23:51.911Z,-3.23
2023-01-15T21:26:19.588Z,-3.23
2023-01-15T21:28:46.966Z,-3.24
2023-01-15T21:31:14.916Z,-3.24
2023-01-15T21:33:42.514Z,-3.23
2023-01-15T21:36:11.532Z,-3.23
2023-01-15T21:38:39.584Z,-3.24
2023-01-15T21:41:11.471Z,-3.25
2023-01-15T21:43:57.844Z,-3.25
2023-01-15T21:46:28.254Z,-3.24
2023-01-15T21:48:56.437Z,-3.23
2023-01-15T21:51:24.730Z,-3.20
2023-01-15T21:53:52.107Z,-3.20
2023-01-15T21:56:19.498Z,-3.18
2023-01-15T21:58:46.961Z,-3.20
2023-01-15T22:01:15.294Z,-3.20
2023-01-15T22:03:42.780Z,-3.18
2023-01-15T22:06:10.357Z,-3.17
2023-01-15T22:08:37.816Z,-3.15
2023-01-15T22:11:06.407Z,-3.13
2023-01-15T22:13:40.038Z,-3.12
2023-01-15T22:16:08.531Z,-3.12
2023-01-15T22:18:36.124Z,-3.13
2023-01-15T22:21:07.671Z,-3.13
2023-01-15T22:23:35.117Z,-3.15
2023-01-15T22:26:02.454Z,-3.15
2023-01-15T22:28:29.721Z,-3.17
2023-01-15T22:30:57.122Z,-3.15
2023-01-15T22:33:24.529Z,-3.12
2023-01-15T22:35:59.066Z,-3.12
2023-01-15T22:38:26.475Z,-3.11
2023-01-15T22:40:53.868Z,-3.10
2023-01-15T22:43:21.248Z,-3.06
2023-01-15T22:45:48.821Z,-3.04
2023-01-15T22:48:16.380Z,-3.02
2023-01-15T22:50:43.828Z,-3.03
2023-01-15T22:53:11.365Z,-3.05
2023-01-15T22:55:38.729Z,-3.05
2023-01-15T22:58:06.344Z,-3.05
2023-01-15T23:00:33.718Z,-3.04
2023-01-15T23:03:07.197Z,-3.03
2023-01-15T23:05:39.318Z,-3.04
2023-01-15T23:08:06.992Z,-3.03
2023-01-15T23:10:34.604Z,-3.04
2023-01-15T23:13:02.009Z,-3.05
2023-01-15T23:15:29.444Z,-3.04
2023-01-15T23:17:56.979Z,-3.04
2023-01-15T23:20:24.496Z,-3.05
2023-01-15T23:22:51.874Z,-3.04
2023-01-15T23:25:19.093Z,-3.03
2023-01-15T23:27:46.460Z,-3.05
2023-01-15T23:30:14.301Z,-3.04
2023-01-15T23:32:42.463Z,-3.04
2023-01-15T23:35:10.224Z,-3.04
2023-01-15T23:37:37.744Z,-3.02
2023-01-15T23:40:06.016Z,-3.04
2023-01-15T23:42:52.164Z,-3.06
2023-01-15T23:45:38.463Z,-3.07
2023-01-15T23:48:06.076Z,-3.07
2023-01-15T23:50:33.478Z,-3.07
2023-01-15T23:53:00.972Z,-3.05
2023-01-15T23:55:28.437Z,-3.05
2023-01-15T23:57:55.833Z,-3.05
